sensor_id;sensor_type;location;lat;lon;timestamp;P1;durP1;ratioP1;P2;durP2;ratioP2
60464;SDS011;46314;52.392;9.758;2023-02-13T00:00:45;15.77;;;11.70;;
60464;SDS011;46314;52.392;9.758;2023-02-13T00:03:13;15.68;;;12.00;;
60464;SDS011;46314;52.392;9.758;2023-02-13T00:05:40;14.55;;;11.48;;
60464;SDS011;46314;52.392;9.758;2023-02-13T00:08:06;12.68;;;10.27;;
60464;SDS011;46314;52.392;9.758;2023-02-13T00:10:32;16.77;;;11.02;;
60464;SDS011;46314;52.392;9.758;2023-02-13T00:12:59;14.75;;;10.73;;
60464;SDS011;46314;52.392;9.758;2023-02-13T00:15:26;13.88;;;10.68;;
60464;SDS011;46314;52.392;9.758;2023-02-13T00:17:53;13.95;;;10.30;;
60464;SDS011;46314;52.392;9.758;2023-02-13T00:20:19;13.85;;;9.95;;
60464;SDS011;46314;52.392;9.758;2023-02-13T00:22:46;13.88;;;10.38;;
60464;SDS011;46314;52.392;9.758;2023-02-13T00:25:12;14.90;;;10.85;;
60464;SDS011;46314;52.392;9.758;2023-02-13T00:27:39;16.42;;;11.75;;
60464;SDS011;46314;52.392;9.758;2023-02-13T00:30:06;16.08;;;11.52;;
60464;SDS011;46314;52.392;9.758;2023-02-13T00:32:34;14.75;;;11.43;;
60464;SDS011;46314;52.392;9.758;2023-02-13T00:35:00;14.18;;;10.35;;
60464;SDS011;46314;52.392;9.758;2023-02-13T00:37:27;13.50;;;11.10;;
60464;SDS011;46314;52.392;9.758;2023-02-13T00:39:53;17.02;;;11.98;;
60464;SDS011;46314;52.392;9.758;2023-02-13T00:42:19;14.88;;;10.68;;
60464;SDS011;46314;52.392;9.758;2023-02-13T00:44:46;13.00;;;10.10;;
60464;SDS011;46314;52.392;9.758;2023-02-13T00:47:12;12.07;;;9.27;;
60464;SDS011;46314;52.392;9.758;2023-02-13T00:49:40;13.45;;;10.40;;
60464;SDS011;46314;52.392;9.758;2023-02-13T00:52:06;14.38;;;9.65;;
60464;SDS011;46314;52.392;9.758;2023-02-13T00:54:33;13.73;;;9.77;;
60464;SDS011;46314;52.392;9.758;2023-02-13T00:56:59;13.95;;;11.07;;
60464;SDS011;46314;52.392;9.758;2023-02-13T00:59:25;13.50;;;11.10;;
60464;SDS011;46314;52.392;9.758;2023-02-13T01:01:52;13.30;;;11.07;;
60464;SDS011;46314;52.392;9.758;2023-02-13T01:04:19;13.57;;;10.77;;
60464;SDS011;46314;52.392;9.758;2023-02-13T01:06:46;13.75;;;10.88;;
60464;SDS011;46314;52.392;9.758;2023-02-13T01:09:13;14.13;;;10.82;;
60464;SDS011;46314;52.392;9.758;2023-02-13T01:11:39;15.07;;;11.52;;
60464;SDS011;46314;52.392;9.758;2023-02-13T01:14:06;15.52;;;12.27;;
60464;SDS011;46314;52.392;9.758;2023-02-13T01:16:32;16.27;;;12.93;;
60464;SDS011;46314;52.392;9.758;2023-02-13T01:18:59;17.08;;;13.23;;
60464;SDS011;46314;52.392;9.758;2023-02-13T01:21:25;17.48;;;12.25;;
60464;SDS011;46314;52.392;9.758;2023-02-13T01:23:53;15.77;;;12.98;;
60464;SDS011;46314;52.392;9.758;2023-02-13T01:26:20;16.45;;;12.50;;
60464;SDS011;46314;52.392;9.758;2023-02-13T01:28:50;18.98;;;12.20;;
60464;SDS011;46314;52.392;9.758;2023-02-13T01:31:17;18.00;;;13.95;;
60464;SDS011;46314;52.392;9.758;2023-02-13T01:33:44;15.90;;;12.77;;
60464;SDS011;46314;52.392;9.758;2023-02-13T01:36:11;18.92;;;14.00;;
60464;SDS011;46314;52.392;9.758;2023-02-13T01:38:38;17.35;;;13.27;;
60464;SDS011;46314;52.392;9.758;2023-02-13T01:41:07;17.38;;;13.90;;
60464;SDS011;46314;52.392;9.758;2023-02-13T01:43:42;18.13;;;14.10;;
60464;SDS011;46314;52.392;9.758;2023-02-13T01:46:14;15.82;;;12.02;;
60464;SDS011;46314;52.392;9.758;2023-02-13T01:48:43;18.50;;;14.10;;
60464;SDS011;46314;52.392;9.758;2023-02-13T01:51:12;17.77;;;13.48;;
60464;SDS011;46314;52.392;9.758;2023-02-13T01:53:44;18.65;;;14.30;;
60464;SDS011;46314;52.392;9.758;2023-02-13T01:56:17;18.23;;;13.43;;
60464;SDS011;46314;52.392;9.758;2023-02-13T01:58:47;20.80;;;14.75;;
60464;SDS011;46314;52.392;9.758;2023-02-13T02:01:16;19.20;;;14.07;;
60464;SDS011;46314;52.392;9.758;2023-02-13T02:03:43;16.88;;;13.27;;
60464;SDS011;46314;52.392;9.758;2023-02-13T02:06:27;20.10;;;14.48;;
60464;SDS011;46314;52.392;9.758;2023-02-13T02:09:00;19.42;;;14.82;;
60464;SDS011;46314;52.392;9.758;2023-02-13T02:11:33;18.40;;;14.27;;
60464;SDS011;46314;52.392;9.758;2023-02-13T02:14:04;17.70;;;13.18;;
60464;SDS011;46314;52.392;9.758;2023-02-13T02:16:31;20.52;;;13.18;;
60464;SDS011;46314;52.392;9.758;2023-02-13T02:18:57;18.65;;;14.73;;
60464;SDS011;46314;52.392;9.758;2023-02-13T02:24:18;18.08;;;13.82;;
60464;SDS011;46314;52.392;9.758;2023-02-13T02:27:18;15.85;;;12.90;;
60464;SDS011;46314;52.392;9.758;2023-02-13T02:30:07;18.35;;;14.10;;
60464;SDS011;46314;52.392;9.758;2023-02-13T02:32:57;18.48;;;13.93;;
60464;SDS011;46314;52.392;9.758;2023-02-13T02:35:40;18.30;;;13.65;;
60464;SDS011;46314;52.392;9.758;2023-02-13T02:38:21;17.00;;;12.82;;
60464;SDS011;46314;52.392;9.758;2023-02-13T02:40:57;17.90;;;12.60;;
60464;SDS011;46314;52.392;9.758;2023-02-13T02:43:43;18.63;;;13.15;;
60464;SDS011;46314;52.392;9.758;2023-02-13T02:46:20;16.23;;;12.57;;
60464;SDS011;46314;52.392;9.758;2023-02-13T02:48:54;16.65;;;11.90;;
60464;SDS011;46314;52.392;9.758;2023-02-13T02:51:29;18.58;;;13.52;;
60464;SDS011;46314;52.392;9.758;2023-02-13T02:54:05;18.40;;;12.68;;
60464;SDS011;46314;52.392;9.758;2023-02-13T02:56:36;16.50;;;12.73;;
60464;SDS011;46314;52.392;9.758;2023-02-13T02:59:07;16.15;;;12.77;;
60464;SDS011;46314;52.392;9.758;2023-02-13T03:01:37;17.00;;;12.93;;
60464;SDS011;46314;52.392;9.758;2023-02-13T03:04:08;17.88;;;12.98;;
60464;SDS011;46314;52.392;9.758;2023-02-13T03:06:43;20.67;;;13.65;;
60464;SDS011;46314;52.392;9.758;2023-02-13T03:09:14;17.20;;;12.48;;
60464;SDS011;46314;52.392;9.758;2023-02-13T03:11:47;18.63;;;12.38;;
60464;SDS011;46314;52.392;9.758;2023-02-13T03:14:15;20.40;;;13.88;;
60464;SDS011;46314;52.392;9.758;2023-02-13T03:16:45;19.73;;;13.75;;
60464;SDS011;46314;52.392;9.758;2023-02-13T03:19:16;18.20;;;12.55;;
60464;SDS011;46314;52.392;9.758;2023-02-13T03:21:52;17.60;;;12.82;;
60464;SDS011;46314;52.392;9.758;2023-02-13T03:24:24;20.20;;;13.88;;
60464;SDS011;46314;52.392;9.758;2023-02-13T03:26:59;16.65;;;12.23;;
60464;SDS011;46314;52.392;9.758;2023-02-13T03:29:34;19.15;;;13.05;;
60464;SDS011;46314;52.392;9.758;2023-02-13T03:32:09;15.02;;;12.68;;
60464;SDS011;46314;52.392;9.758;2023-02-13T03:34:43;15.50;;;12.00;;
60464;SDS011;46314;52.392;9.758;2023-02-13T03:37:17;17.65;;;12.82;;
60464;SDS011;46314;52.392;9.758;2023-02-13T03:39:48;18.65;;;13.13;;
60464;SDS011;46314;52.392;9.758;2023-02-13T03:42:25;17.48;;;12.70;;
60464;SDS011;46314;52.392;9.758;2023-02-13T03:44:57;13.98;;;10.65;;
60464;SDS011;46314;52.392;9.758;2023-02-13T03:47:27;14.98;;;11.98;;
60464;SDS011;46314;52.392;9.758;2023-02-13T03:49:55;19.25;;;12.73;;
60464;SDS011;46314;52.392;9.758;2023-02-13T03:52:22;15.98;;;12.63;;
60464;SDS011;46314;52.392;9.758;2023-02-13T03:54:53;18.13;;;12.10;;
60464;SDS011;46314;52.392;9.758;2023-02-13T03:57:23;17.73;;;12.23;;
60464;SDS011;46314;52.392;9.758;2023-02-13T03:59:52;16.50;;;12.38;;
60464;SDS011;46314;52.392;9.758;2023-02-13T04:02:23;17.30;;;12.07;;
60464;SDS011;46314;52.392;9.758;2023-02-13T04:04:59;21.25;;;13.32;;
60464;SDS011;46314;52.392;9.758;2023-02-13T04:07:33;15.95;;;11.07;;
60464;SDS011;46314;52.392;9.758;2023-02-13T04:10:00;16.25;;;11.73;;
60464;SDS011;46314;52.392;9.758;2023-02-13T04:12:34;15.30;;;10.57;;
60464;SDS011;46314;52.392;9.758;2023-02-13T04:15:07;16.35;;;12.15;;
60464;SDS011;46314;52.392;9.758;2023-02-13T04:17:38;16.25;;;11.07;;
60464;SDS011;46314;52.392;9.758;2023-02-13T04:20:11;18.75;;;12.35;;
60464;SDS011;46314;52.392;9.758;2023-02-13T04:22:40;15.77;;;11.30;;
60464;SDS011;46314;52.392;9.758;2023-02-13T04:25:08;20.92;;;11.52;;
60464;SDS011;46314;52.392;9.758;2023-02-13T04:27:35;16.20;;;11.80;;
60464;SDS011;46314;52.392;9.758;2023-02-13T04:30:02;16.02;;;11.35;;
60464;SDS011;46314;52.392;9.758;2023-02-13T04:32:29;15.88;;;11.77;;
60464;SDS011;46314;52.392;9.758;2023-02-13T04:34:55;17.17;;;11.75;;
60464;SDS011;46314;52.392;9.758;2023-02-13T04:37:23;18.75;;;11.90;;
60464;SDS011;46314;52.392;9.758;2023-02-13T04:39:49;15.30;;;10.75;;
60464;SDS011;46314;52.392;9.758;2023-02-13T04:42:16;14.65;;;10.75;;
60464;SDS011;46314;52.392;9.758;2023-02-13T04:44:42;14.52;;;10.23;;
60464;SDS011;46314;52.392;9.758;2023-02-13T04:47:08;15.52;;;10.05;;
60464;SDS011;46314;52.392;9.758;2023-02-13T04:49:36;14.25;;;10.32;;
60464;SDS011;46314;52.392;9.758;2023-02-13T04:52:02;15.73;;;11.02;;
60464;SDS011;46314;52.392;9.758;2023-02-13T04:54:30;13.40;;;10.15;;
60464;SDS011;46314;52.392;9.758;2023-02-13T04:56:56;15.55;;;10.50;;
60464;SDS011;46314;52.392;9.758;2023-02-13T04:59:23;16.27;;;9.45;;
60464;SDS011;46314;52.392;9.758;2023-02-13T05:01:49;14.68;;;10.07;;
60464;SDS011;46314;52.392;9.758;2023-02-13T05:04:16;18.15;;;11.40;;
60464;SDS011;46314;52.392;9.758;2023-02-13T05:06:42;16.83;;;11.15;;
60464;SDS011;46314;52.392;9.758;2023-02-13T05:09:09;15.52;;;10.80;;
60464;SDS011;46314;52.392;9.758;2023-02-13T05:11:37;13.88;;;10.30;;
60464;SDS011;46314;52.392;9.758;2023-02-13T05:14:03;13.60;;;9.68;;
60464;SDS011;46314;52.392;9.758;2023-02-13T05:16:30;13.85;;;9.93;;
60464;SDS011;46314;52.392;9.758;2023-02-13T05:18:56;14.20;;;9.73;;
60464;SDS011;46314;52.392;9.758;2023-02-13T05:21:22;12.65;;;9.32;;
60464;SDS011;46314;52.392;9.758;2023-02-13T05:23:49;12.82;;;9.18;;
60464;SDS011;46314;52.392;9.758;2023-02-13T05:26:15;14.90;;;10.02;;
60464;SDS011;46314;52.392;9.758;2023-02-13T05:28:43;13.57;;;9.57;;
60464;SDS011;46314;52.392;9.758;2023-02-13T05:31:09;12.23;;;9.13;;
60464;SDS011;46314;52.392;9.758;2023-02-13T05:33:36;13.77;;;8.52;;
60464;SDS011;46314;52.392;9.758;2023-02-13T05:36:02;11.85;;;9.10;;
60464;SDS011;46314;52.392;9.758;2023-02-13T05:38:29;13.25;;;9.02;;
60464;SDS011;46314;52.392;9.758;2023-02-13T05:40:57;11.88;;;8.48;;
60464;SDS011;46314;52.392;9.758;2023-02-13T05:43:24;11.18;;;8.50;;
60464;SDS011;46314;52.392;9.758;2023-02-13T05:45:59;13.70;;;9.60;;
60464;SDS011;46314;52.392;9.758;2023-02-13T05:48:26;13.95;;;10.38;;
60464;SDS011;46314;52.392;9.758;2023-02-13T05:50:52;13.60;;;8.98;;
60464;SDS011;46314;52.392;9.758;2023-02-13T05:53:19;13.77;;;10.13;;
60464;SDS011;46314;52.392;9.758;2023-02-13T05:55:45;11.63;;;9.10;;
60464;SDS011;46314;52.392;9.758;2023-02-13T05:58:12;15.40;;;9.68;;
60464;SDS011;46314;52.392;9.758;2023-02-13T06:00:38;12.05;;;9.30;;
60464;SDS011;46314;52.392;9.758;2023-02-13T06:03:06;13.70;;;8.95;;
60464;SDS011;46314;52.392;9.758;2023-02-13T06:05:32;12.45;;;8.35;;
60464;SDS011;46314;52.392;9.758;2023-02-13T06:07:58;12.52;;;8.80;;
60464;SDS011;46314;52.392;9.758;2023-02-13T06:10:25;12.35;;;7.82;;
60464;SDS011;46314;52.392;9.758;2023-02-13T06:12:51;12.98;;;8.15;;
60464;SDS011;46314;52.392;9.758;2023-02-13T06:15:18;13.73;;;8.00;;
60464;SDS011;46314;52.392;9.758;2023-02-13T06:17:45;10.48;;;8.00;;
60464;SDS011;46314;52.392;9.758;2023-02-13T06:20:13;13.32;;;8.68;;
60464;SDS011;46314;52.392;9.758;2023-02-13T06:22:39;10.63;;;7.95;;
60464;SDS011;46314;52.392;9.758;2023-02-13T06:25:06;10.65;;;7.75;;
60464;SDS011;46314;52.392;9.758;2023-02-13T06:27:32;11.82;;;8.32;;
60464;SDS011;46314;52.392;9.758;2023-02-13T06:29:59;10.45;;;7.80;;
60464;SDS011;46314;52.392;9.758;2023-02-13T06:32:25;10.30;;;8.32;;
60464;SDS011;46314;52.392;9.758;2023-02-13T06:34:52;11.25;;;8.27;;
60464;SDS011;46314;52.392;9.758;2023-02-13T06:37:19;12.95;;;9.15;;
60464;SDS011;46314;52.392;9.758;2023-02-13T06:39:46;13.05;;;9.20;;
60464;SDS011;46314;52.392;9.758;2023-02-13T06:42:12;10.93;;;8.32;;
60464;SDS011;46314;52.392;9.758;2023-02-13T06:44:38;12.55;;;8.38;;
60464;SDS011;46314;52.392;9.758;2023-02-13T06:47:05;12.63;;;9.15;;
60464;SDS011;46314;52.392;9.758;2023-02-13T06:49:31;12.40;;;8.50;;
60464;SDS011;46314;52.392;9.758;2023-02-13T06:51:58;9.55;;;7.78;;
60464;SDS011;46314;52.392;9.758;2023-02-13T06:54:25;11.60;;;8.63;;
60464;SDS011;46314;52.392;9.758;2023-02-13T06:57:11;12.23;;;8.43;;
60464;SDS011;46314;52.392;9.758;2023-02-13T06:59:38;10.95;;;8.25;;
60464;SDS011;46314;52.392;9.758;2023-02-13T07:02:04;10.40;;;8.00;;
60464;SDS011;46314;52.392;9.758;2023-02-13T07:04:30;11.98;;;7.72;;
60464;SDS011;46314;52.392;9.758;2023-02-13T07:06:57;9.80;;;7.20;;
60464;SDS011;46314;52.392;9.758;2023-02-13T07:09:23;13.52;;;8.23;;
60464;SDS011;46314;52.392;9.758;2023-02-13T07:11:51;13.55;;;9.55;;
60464;SDS011;46314;52.392;9.758;2023-02-13T07:14:17;10.98;;;7.95;;
60464;SDS011;46314;52.392;9.758;2023-02-13T07:16:44;11.38;;;8.02;;
60464;SDS011;46314;52.392;9.758;2023-02-13T07:19:10;11.43;;;8.90;;
60464;SDS011;46314;52.392;9.758;2023-02-13T07:21:37;11.23;;;7.63;;
60464;SDS011;46314;52.392;9.758;2023-02-13T07:24:03;10.48;;;7.50;;
60464;SDS011;46314;52.392;9.758;2023-02-13T07:26:33;10.30;;;6.65;;
60464;SDS011;46314;52.392;9.758;2023-02-13T07:29:00;11.80;;;7.32;;
60464;SDS011;46314;52.392;9.758;2023-02-13T07:31:36;9.18;;;7.05;;
60464;SDS011;46314;52.392;9.758;2023-02-13T07:34:03;9.32;;;7.20;;
60464;SDS011;46314;52.392;9.758;2023-02-13T07:36:29;12.80;;;7.93;;
60464;SDS011;46314;52.392;9.758;2023-02-13T07:38:56;11.85;;;7.97;;
60464;SDS011;46314;52.392;9.758;2023-02-13T07:41:22;12.48;;;8.50;;
60464;SDS011;46314;52.392;9.758;2023-02-13T07:43:48;10.18;;;8.73;;
60464;SDS011;46314;52.392;9.758;2023-02-13T07:46:16;11.70;;;8.38;;
60464;SDS011;46314;52.392;9.758;2023-02-13T07:48:43;10.60;;;7.88;;
60464;SDS011;46314;52.392;9.758;2023-02-13T07:51:09;11.68;;;7.95;;
60464;SDS011;46314;52.392;9.758;2023-02-13T07:53:35;11.43;;;8.25;;
60464;SDS011;46314;52.392;9.758;2023-02-13T07:56:05;13.82;;;7.75;;
60464;SDS011;46314;52.392;9.758;2023-02-13T07:58:32;10.20;;;7.63;;
60464;SDS011;46314;52.392;9.758;2023-02-13T08:01:04;11.80;;;8.57;;
60464;SDS011;46314;52.392;9.758;2023-02-13T08:03:32;11.27;;;8.40;;
60464;SDS011;46314;52.392;9.758;2023-02-13T08:05:59;12.10;;;7.60;;
60464;SDS011;46314;52.392;9.758;2023-02-13T08:08:25;10.77;;;8.05;;
60464;SDS011;46314;52.392;9.758;2023-02-13T08:10:52;10.45;;;8.13;;
60464;SDS011;46314;52.392;9.758;2023-02-13T08:13:18;14.32;;;8.98;;
60464;SDS011;46314;52.392;9.758;2023-02-13T08:15:45;12.95;;;9.02;;
60464;SDS011;46314;52.392;9.758;2023-02-13T08:18:11;10.43;;;7.38;;
60464;SDS011;46314;52.392;9.758;2023-02-13T08:20:39;10.88;;;8.32;;
60464;SDS011;46314;52.392;9.758;2023-02-13T08:23:06;10.23;;;7.97;;
60464;SDS011;46314;52.392;9.758;2023-02-13T08:25:36;12.15;;;8.52;;
60464;SDS011;46314;52.392;9.758;2023-02-13T08:28:03;12.90;;;7.97;;
60464;SDS011;46314;52.392;9.758;2023-02-13T08:30:30;11.32;;;7.93;;
60464;SDS011;46314;52.392;9.758;2023-02-13T08:32:56;11.05;;;7.72;;
60464;SDS011;46314;52.392;9.758;2023-02-13T08:35:23;10.10;;;7.63;;
60464;SDS011;46314;52.392;9.758;2023-02-13T08:37:51;13.90;;;8.48;;
60464;SDS011;46314;52.392;9.758;2023-02-13T08:40:17;11.35;;;8.05;;
60464;SDS011;46314;52.392;9.758;2023-02-13T08:42:44;11.30;;;7.22;;
60464;SDS011;46314;52.392;9.758;2023-02-13T08:45:10;9.90;;;7.47;;
60464;SDS011;46314;52.392;9.758;2023-02-13T08:47:37;9.85;;;6.95;;
60464;SDS011;46314;52.392;9.758;2023-02-13T08:50:04;10.90;;;7.90;;
60464;SDS011;46314;52.392;9.758;2023-02-13T08:52:31;11.68;;;7.78;;
60464;SDS011;46314;52.392;9.758;2023-02-13T08:55:00;9.45;;;6.80;;
60464;SDS011;46314;52.392;9.758;2023-02-13T08:57:27;9.88;;;6.75;;
60464;SDS011;46314;52.392;9.758;2023-02-13T08:59:53;9.50;;;6.88;;
60464;SDS011;46314;52.392;9.758;2023-02-13T09:02:19;9.88;;;7.35;;
60464;SDS011;46314;52.392;9.758;2023-02-13T09:04:46;11.07;;;7.07;;
60464;SDS011;46314;52.392;9.758;2023-02-13T09:07:12;10.80;;;7.28;;
60464;SDS011;46314;52.392;9.758;2023-02-13T09:09:38;10.75;;;7.35;;
60464;SDS011;46314;52.392;9.758;2023-02-13T09:12:06;15.02;;;8.02;;
60464;SDS011;46314;52.392;9.758;2023-02-13T09:14:32;12.50;;;6.60;;
60464;SDS011;46314;52.392;9.758;2023-02-13T09:16:59;9.75;;;6.88;;
60464;SDS011;46314;52.392;9.758;2023-02-13T09:19:25;11.38;;;7.10;;
60464;SDS011;46314;52.392;9.758;2023-02-13T09:21:52;9.00;;;7.10;;
60464;SDS011;46314;52.392;9.758;2023-02-13T09:24:18;9.13;;;6.85;;
60464;SDS011;46314;52.392;9.758;2023-02-13T09:26:44;11.07;;;7.45;;
60464;SDS011;46314;52.392;9.758;2023-02-13T09:29:12;11.15;;;7.32;;
60464;SDS011;46314;52.392;9.758;2023-02-13T09:31:39;10.25;;;6.65;;
60464;SDS011;46314;52.392;9.758;2023-02-13T09:34:05;9.35;;;7.05;;
60464;SDS011;46314;52.392;9.758;2023-02-13T09:36:32;11.95;;;6.53;;
60464;SDS011;46314;52.392;9.758;2023-02-13T09:38:58;10.25;;;6.95;;
60464;SDS011;46314;52.392;9.758;2023-02-13T09:41:25;10.02;;;7.50;;
60464;SDS011;46314;52.392;9.758;2023-02-13T09:43:55;9.55;;;7.00;;
60464;SDS011;46314;52.392;9.758;2023-02-13T09:46:27;11.50;;;7.03;;
60464;SDS011;46314;52.392;9.758;2023-02-13T09:48:58;9.85;;;6.82;;
60464;SDS011;46314;52.392;9.758;2023-02-13T09:51:26;9.40;;;6.55;;
60464;SDS011;46314;52.392;9.758;2023-02-13T09:53:54;11.15;;;7.13;;
60464;SDS011;46314;52.392;9.758;2023-02-13T09:56:26;9.90;;;7.20;;
60464;SDS011;46314;52.392;9.758;2023-02-13T09:59:05;11.07;;;6.63;;
60464;SDS011;46314;52.392;9.758;2023-02-13T10:01:43;9.18;;;7.13;;
60464;SDS011;46314;52.392;9.758;2023-02-13T10:04:16;8.83;;;6.37;;
60464;SDS011;46314;52.392;9.758;2023-02-13T10:06:53;9.77;;;7.28;;
60464;SDS011;46314;52.392;9.758;2023-02-13T10:09:28;10.30;;;7.28;;
60464;SDS011;46314;52.392;9.758;2023-02-13T10:12:07;9.27;;;7.15;;
60464;SDS011;46314;52.392;9.758;2023-02-13T10:14:44;10.13;;;6.18;;
60464;SDS011;46314;52.392;9.758;2023-02-13T10:17:22;10.43;;;7.82;;
60464;SDS011;46314;52.392;9.758;2023-02-13T10:19:54;9.70;;;6.80;;
60464;SDS011;46314;52.392;9.758;2023-02-13T10:22:25;10.70;;;7.15;;
60464;SDS011;46314;52.392;9.758;2023-02-13T10:24:56;9.57;;;6.63;;
60464;SDS011;46314;52.392;9.758;2023-02-13T10:27:29;8.43;;;6.15;;
60464;SDS011;46314;52.392;9.758;2023-02-13T10:29:59;10.40;;;6.88;;
60464;SDS011;46314;52.392;9.758;2023-02-13T10:32:33;10.10;;;6.75;;
60464;SDS011;46314;52.392;9.758;2023-02-13T10:35:13;10.43;;;6.05;;
60464;SDS011;46314;52.392;9.758;2023-02-13T10:37:44;8.00;;;5.93;;
60464;SDS011;46314;52.392;9.758;2023-02-13T10:40:13;7.38;;;5.60;;
60464;SDS011;46314;52.392;9.758;2023-02-13T10:42:40;11.95;;;7.68;;
60464;SDS011;46314;52.392;9.758;2023-02-13T10:45:17;9.00;;;5.88;;
60464;SDS011;46314;52.392;9.758;2023-02-13T10:48:00;9.80;;;6.32;;
60464;SDS011;46314;52.392;9.758;2023-02-13T10:50:35;11.88;;;6.32;;
60464;SDS011;46314;52.392;9.758;2023-02-13T10:53:10;8.63;;;5.65;;
60464;SDS011;46314;52.392;9.758;2023-02-13T10:55:53;8.02;;;6.10;;
60464;SDS011;46314;52.392;9.758;2023-02-13T10:58:26;10.07;;;6.50;;
60464;SDS011;46314;52.392;9.758;2023-02-13T11:01:05;8.05;;;5.88;;
60464;SDS011;46314;52.392;9.758;2023-02-13T11:03:36;10.00;;;5.90;;
60464;SDS011;46314;52.392;9.758;2023-02-13T11:06:04;11.10;;;6.57;;
60464;SDS011;46314;52.392;9.758;2023-02-13T11:08:33;9.73;;;5.95;;
60464;SDS011;46314;52.392;9.758;2023-02-13T11:11:03;7.75;;;5.82;;
60464;SDS011;46314;52.392;9.758;2023-02-13T11:13:58;8.35;;;5.93;;
60464;SDS011;46314;52.392;9.758;2023-02-13T11:16:37;10.15;;;6.32;;
60464;SDS011;46314;52.392;9.758;2023-02-13T11:19:12;8.65;;;5.78;;
60464;SDS011;46314;52.392;9.758;2023-02-13T11:21:42;10.75;;;7.25;;
60464;SDS011;46314;52.392;9.758;2023-02-13T11:24:15;8.05;;;6.22;;
60464;SDS011;46314;52.392;9.758;2023-02-13T11:26:43;8.32;;;5.93;;
60464;SDS011;46314;52.392;9.758;2023-02-13T11:29:15;9.40;;;5.00;;
60464;SDS011;46314;52.392;9.758;2023-02-13T11:31:43;9.35;;;6.05;;
60464;SDS011;46314;52.392;9.758;2023-02-13T11:34:23;9.23;;;5.85;;
60464;SDS011;46314;52.392;9.758;2023-02-13T11:36:52;9.10;;;5.70;;
60464;SDS011;46314;52.392;9.758;2023-02-13T11:39:20;9.90;;;6.45;;
60464;SDS011;46314;52.392;9.758;2023-02-13T11:41:47;10.00;;;5.97;;
60464;SDS011;46314;52.392;9.758;2023-02-13T11:44:19;7.50;;;5.55;;
60464;SDS011;46314;52.392;9.758;2023-02-13T11:46:51;7.75;;;5.25;;
60464;SDS011;46314;52.392;9.758;2023-02-13T11:49:20;8.45;;;5.32;;
60464;SDS011;46314;52.392;9.758;2023-02-13T11:51:49;8.90;;;6.15;;
60464;SDS011;46314;52.392;9.758;2023-02-13T11:54:22;6.95;;;5.05;;
60464;SDS011;46314;52.392;9.758;2023-02-13T11:56:54;9.30;;;5.20;;
60464;SDS011;46314;52.392;9.758;2023-02-13T11:59:32;8.30;;;5.15;;
60464;SDS011;46314;52.392;9.758;2023-02-13T12:02:13;7.07;;;5.28;;
60464;SDS011;46314;52.392;9.758;2023-02-13T12:04:46;6.85;;;5.30;;
60464;SDS011;46314;52.392;9.758;2023-02-13T12:07:18;6.38;;;4.63;;
60464;SDS011;46314;52.392;9.758;2023-02-13T12:09:48;7.70;;;5.07;;
60464;SDS011;46314;52.392;9.758;2023-02-13T12:12:18;7.90;;;5.07;;
60464;SDS011;46314;52.392;9.758;2023-02-13T12:14:50;7.95;;;5.10;;
60464;SDS011;46314;52.392;9.758;2023-02-13T12:17:17;7.60;;;4.90;;
60464;SDS011;46314;52.392;9.758;2023-02-13T12:19:58;6.88;;;5.32;;
60464;SDS011;46314;52.392;9.758;2023-02-13T12:22:29;5.55;;;4.05;;
60464;SDS011;46314;52.392;9.758;2023-02-13T12:27:57;6.38;;;5.00;;
60464;SDS011;46314;52.392;9.758;2023-02-13T12:30:35;6.03;;;4.40;;
60464;SDS011;46314;52.392;9.758;2023-02-13T12:33:13;7.13;;;4.43;;
60464;SDS011;46314;52.392;9.758;2023-02-13T12:35:52;7.20;;;4.70;;
60464;SDS011;46314;52.392;9.758;2023-02-13T12:38:28;5.95;;;3.75;;
60464;SDS011;46314;52.392;9.758;2023-02-13T12:41:14;8.25;;;4.88;;
60464;SDS011;46314;52.392;9.758;2023-02-13T12:43:51;6.05;;;4.70;;
60464;SDS011;46314;52.392;9.758;2023-02-13T12:46:49;7.20;;;4.57;;
60464;SDS011;46314;52.392;9.758;2023-02-13T12:49:24;7.03;;;3.95;;
60464;SDS011;46314;52.392;9.758;2023-02-13T12:52:09;6.55;;;4.65;;
60464;SDS011;46314;52.392;9.758;2023-02-13T12:54:52;8.55;;;5.35;;
60464;SDS011;46314;52.392;9.758;2023-02-13T12:57:36;7.28;;;4.50;;
60464;SDS011;46314;52.392;9.758;2023-02-13T13:00:14;8.00;;;4.78;;
60464;SDS011;46314;52.392;9.758;2023-02-13T13:02:50;6.82;;;4.80;;
60464;SDS011;46314;52.392;9.758;2023-02-13T13:05:30;6.80;;;4.35;;
60464;SDS011;46314;52.392;9.758;2023-02-13T13:08:15;6.85;;;4.85;;
60464;SDS011;46314;52.392;9.758;2023-02-13T13:10:52;6.28;;;4.45;;
60464;SDS011;46314;52.392;9.758;2023-02-13T13:13:33;6.45;;;4.95;;
60464;SDS011;46314;52.392;9.758;2023-02-13T13:16:12;8.13;;;5.15;;
60464;SDS011;46314;52.392;9.758;2023-02-13T13:18:50;7.10;;;5.20;;
60464;SDS011;46314;52.392;9.758;2023-02-13T13:21:25;7.35;;;5.07;;
60464;SDS011;46314;52.392;9.758;2023-02-13T13:24:01;6.35;;;4.25;;
60464;SDS011;46314;52.392;9.758;2023-02-13T13:26:32;5.57;;;3.83;;
60464;SDS011;46314;52.392;9.758;2023-02-13T13:29:03;8.18;;;5.32;;
60464;SDS011;46314;52.392;9.758;2023-02-13T13:31:33;8.30;;;5.47;;
60464;SDS011;46314;52.392;9.758;2023-02-13T13:34:04;7.25;;;5.13;;
60464;SDS011;46314;52.392;9.758;2023-02-13T13:36:34;8.45;;;5.50;;
60464;SDS011;46314;52.392;9.758;2023-02-13T13:41:42;7.68;;;5.85;;
60464;SDS011;46314;52.392;9.758;2023-02-13T13:44:33;7.70;;;5.47;;
60464;SDS011;46314;52.392;9.758;2023-02-13T13:47:12;8.55;;;5.70;;
60464;SDS011;46314;52.392;9.758;2023-02-13T13:49:47;8.30;;;5.90;;
60464;SDS011;46314;52.392;9.758;2023-02-13T13:52:20;8.88;;;6.07;;
60464;SDS011;46314;52.392;9.758;2023-02-13T13:54:49;10.65;;;7.20;;
60464;SDS011;46314;52.392;9.758;2023-02-13T13:57:16;9.13;;;6.43;;
60464;SDS011;46314;52.392;9.758;2023-02-13T13:59:59;8.23;;;5.90;;
60464;SDS011;46314;52.392;9.758;2023-02-13T14:02:46;7.80;;;6.05;;
60464;SDS011;46314;52.392;9.758;2023-02-13T14:05:24;8.50;;;5.95;;
60464;SDS011;46314;52.392;9.758;2023-02-13T14:07:54;7.32;;;5.32;;
60464;SDS011;46314;52.392;9.758;2023-02-13T14:13:35;7.93;;;5.35;;
60464;SDS011;46314;52.392;9.758;2023-02-13T14:16:03;7.63;;;5.50;;
60464;SDS011;46314;52.392;9.758;2023-02-13T14:18:34;10.07;;;5.85;;
60464;SDS011;46314;52.392;9.758;2023-02-13T14:21:01;7.72;;;5.72;;
60464;SDS011;46314;52.392;9.758;2023-02-13T14:23:30;8.98;;;5.65;;
60464;SDS011;46314;52.392;9.758;2023-02-13T14:26:09;9.48;;;6.15;;
60464;SDS011;46314;52.392;9.758;2023-02-13T14:28:56;8.20;;;6.13;;
60464;SDS011;46314;52.392;9.758;2023-02-13T14:31:42;7.35;;;5.55;;
60464;SDS011;46314;52.392;9.758;2023-02-13T14:34:24;13.23;;;6.70;;
60464;SDS011;46314;52.392;9.758;2023-02-13T14:36:59;8.30;;;5.63;;
60464;SDS011;46314;52.392;9.758;2023-02-13T14:39:32;7.97;;;5.50;;
60464;SDS011;46314;52.392;9.758;2023-02-13T14:42:00;8.93;;;5.47;;
60464;SDS011;46314;52.392;9.758;2023-02-13T14:44:30;8.73;;;5.93;;
60464;SDS011;46314;52.392;9.758;2023-02-13T14:47:00;8.80;;;5.60;;
60464;SDS011;46314;52.392;9.758;2023-02-13T14:49:30;8.52;;;6.38;;
60464;SDS011;46314;52.392;9.758;2023-02-13T14:52:00;7.22;;;5.00;;
60464;SDS011;46314;52.392;9.758;2023-02-13T14:54:31;7.07;;;5.75;;
60464;SDS011;46314;52.392;9.758;2023-02-13T14:57:03;7.18;;;4.50;;
60464;SDS011;46314;52.392;9.758;2023-02-13T14:59:34;8.57;;;5.27;;
60464;SDS011;46314;52.392;9.758;2023-02-13T15:02:08;8.15;;;6.20;;
60464;SDS011;46314;52.392;9.758;2023-02-13T15:04:41;8.10;;;5.93;;